createdAt,value
2023-05-06T00:00:29.890Z,9.90
2023-05-06T00:01:29.876Z,9.89
2023-05-06T00:02:29.989Z,9.87
2023-05-06T00:03:30.031Z,9.87
2023-05-06T00:04:29.859Z,9.89
2023-05-06T00:05:29.833Z,9.86
2023-05-06T00:06:29.815Z,9.84
2023-05-06T00:07:29.809Z,9.86
2023-05-06T00:08:29.768Z,9.83
2023-05-06T00:09:29.755Z,9.86
2023-05-06T00:10:29.732Z,9.87
2023-05-06T00:11:29.761Z,9.86
2023-05-06T00:12:29.718Z,9.83
2023-05-06T00:13:29.696Z,9.84
2023-05-06T00:14:29.689Z,9.87
2023-05-06T00:15:30.868Z,9.87
2023-05-06T00:16:29.692Z,9.89
2023-05-06T00:17:29.688Z,9.89
2023-05-06T00:18:29.648Z,9.93
2023-05-06T00:19:29.615Z,9.91
2023-05-06T00:20:29.632Z,9.91
2023-05-06T00:21:29.614Z,9.90
2023-05-06T00:22:29.572Z,9.91
2023-05-06T00:23:29.594Z,9.96
2023-05-06T00:24:29.567Z,9.94
2023-05-06T00:25:29.532Z,9.93
2023-05-06T00:26:29.497Z,9.91
2023-05-06T00:27:29.527Z,9.94
2023-05-06T00:28:29.500Z,9.96
2023-05-06T00:29:29.501Z,9.96
2023-05-06T00:30:29.465Z,9.96
2023-05-06T00:31:29.541Z,9.94
2023-05-06T00:32:29.507Z,9.96
2023-05-06T00:33:29.501Z,9.96
2023-05-06T00:34:29.425Z,9.91
2023-05-06T00:35:29.410Z,9.94
2023-05-06T00:36:29.400Z,9.97
2023-05-06T00:37:29.365Z,9.96
2023-05-06T00:38:29.366Z,9.91
2023-05-06T00:39:29.348Z,9.96
2023-05-06T00:40:29.328Z,9.99
2023-05-06T00:41:29.306Z,9.99
2023-05-06T00:42:29.311Z,10.02
2023-05-06T00:43:29.307Z,10.07
2023-05-06T00:44:29.306Z,10.05
2023-05-06T00:45:29.307Z,10.05
2023-05-06T00:46:29.276Z,10.05
2023-05-06T00:47:29.254Z,10.07
2023-05-06T00:48:29.248Z,10.05
2023-05-06T00:49:29.209Z,10.09
2023-05-06T00:50:29.201Z,10.07
2023-05-06T00:51:29.209Z,10.08
2023-05-06T00:52:29.199Z,10.07
2023-05-06T00:53:29.158Z,10.12
2023-05-06T00:54:29.138Z,10.12
2023-05-06T00:55:29.133Z,10.09
2023-05-06T00:56:29.114Z,10.09
2023-05-06T00:57:29.153Z,10.11
2023-05-06T00:58:29.091Z,10.14
2023-05-06T00:59:29.087Z,10.12
2023-05-06T01:00:29.113Z,10.12
2023-05-06T01:01:29.104Z,10.12
2023-05-06T01:02:39.810Z,10.09
2023-05-06T01:03:30.054Z,10.11
2023-05-06T01:04:29.096Z,10.08
2023-05-06T01:05:29.005Z,10.05
2023-05-06T01:06:28.974Z,10.05
2023-05-06T01:07:28.978Z,10.02
2023-05-06T01:08:28.980Z,10.02
2023-05-06T01:09:28.962Z,9.99
2023-05-06T01:10:28.942Z,10.01
2023-05-06T01:11:28.916Z,9.94
2023-05-06T01:12:28.926Z,9.93
2023-05-06T01:13:28.878Z,9.93
2023-05-06T01:14:28.911Z,9.89
2023-05-06T01:15:28.863Z,9.91
2023-05-06T01:16:28.937Z,9.86
2023-05-06T01:17:28.861Z,9.84
2023-05-06T01:18:28.851Z,9.83
2023-05-06T01:19:28.801Z,9.83
2023-05-06T01:20:28.828Z,9.79
2023-05-06T01:21:28.790Z,9.75
2023-05-06T01:26:31.873Z,9.71
2023-05-06T01:27:01.237Z,9.69
2023-05-06T01:28:01.261Z,9.69
2023-05-06T01:29:01.216Z,9.65
2023-05-06T01:30:01.195Z,9.61
2023-05-06T01:31:01.337Z,9.57
2023-05-06T01:32:01.187Z,9.54
2023-05-06T01:33:01.186Z,9.53
2023-05-06T01:34:01.136Z,9.53
2023-05-06T01:35:01.110Z,9.51
2023-05-06T01:36:01.109Z,9.47
2023-05-06T01:37:01.133Z,9.48
2023-05-06T01:38:01.108Z,9.47
2023-05-06T01:39:01.102Z,9.42
2023-05-06T01:40:01.071Z,9.39
2023-05-06T01:41:01.043Z,9.42
2023-05-06T01:42:01.055Z,9.42
2023-05-06T01:43:01.023Z,9.43
2023-05-06T01:44:01.016Z,9.40
2023-05-06T01:45:01.039Z,9.42
2023-05-06T01:46:01.031Z,9.38
2023-05-06T01:47:00.985Z,9.39
2023-05-06T01:48:01.041Z,9.38
2023-05-06T01:49:00.945Z,9.33
2023-05-06T01:50:00.976Z,9.33
2023-05-06T01:51:00.927Z,9.32
2023-05-06T01:52:00.934Z,9.33
2023-05-06T01:53:00.917Z,9.35
2023-05-06T01:54:00.902Z,9.35
2023-05-06T01:55:00.892Z,9.33
2023-05-06T01:56:00.867Z,9.32
2023-05-06T01:57:00.850Z,9.32
2023-05-06T01:58:00.891Z,9.32
2023-05-06T01:59:00.831Z,9.29
2023-05-06T02:00:00.791Z,9.29
2023-05-06T02:01:00.776Z,9.29
2023-05-06T02:02:00.912Z,9.31
2023-05-06T02:03:00.873Z,9.31
2023-05-06T02:04:00.932Z,9.28
2023-05-06T02:05:00.745Z,9.28
2023-05-06T02:06:00.752Z,9.29
2023-05-06T02:07:00.705Z,9.24
2023-05-06T02:08:00.706Z,9.26
2023-05-06T02:09:00.674Z,9.21
2023-05-06T02:10:00.715Z,9.26
2023-05-06T02:11:00.688Z,9.23
2023-05-06T02:12:00.639Z,9.23
2023-05-06T02:13:00.699Z,9.20
2023-05-06T02:14:00.623Z,9.18
2023-05-06T02:15:00.660Z,9.13
2023-05-06T02:16:00.647Z,9.10
2023-05-06T02:17:00.620Z,9.10
2023-05-06T02:18:00.593Z,9.05
2023-05-06T02:19:00.550Z,9.02
2023-05-06T02:20:00.559Z,9.02
2023-05-06T02:21:00.545Z,9.04
2023-05-06T02:22:00.531Z,9.02
2023-05-06T02:23:00.497Z,9.04
2023-05-06T02:24:00.502Z,9.04
2023-05-06T02:25:00.463Z,8.99
2023-05-06T02:26:00.448Z,8.99
2023-05-06T02:27:00.426Z,8.96
2023-05-06T02:28:00.442Z,8.98
2023-05-06T02:29:00.430Z,8.96
2023-05-06T02:30:00.433Z,8.92
2023-05-06T02:31:00.399Z,8.94
2023-05-06T02:32:00.444Z,8.87
2023-05-06T02:33:00.451Z,8.89
2023-05-06T02:34:00.379Z,8.87
2023-05-06T02:35:00.381Z,8.92
2023-05-06T02:36:00.344Z,8.91
2023-05-06T02:37:00.316Z,8.92
2023-05-06T02:38:00.310Z,8.84
2023-05-06T02:39:00.309Z,8.86
2023-05-06T02:40:00.275Z,8.84
2023-05-06T02:41:00.263Z,8.86
2023-05-06T02:42:00.246Z,8.84
2023-05-06T02:43:00.258Z,8.84
2023-05-06T02:44:00.207Z,8.80
2023-05-06T02:45:00.214Z,8.79
2023-05-06T02:46:00.224Z,8.80
2023-05-06T02:47:00.195Z,8.84
2023-05-06T02:48:00.240Z,8.92
2023-05-06T02:49:00.210Z,8.91
2023-05-06T02:50:00.199Z,8.91
2023-05-06T02:51:00.185Z,8.92
2023-05-06T02:52:00.163Z,8.89
2023-05-06T02:53:00.163Z,8.84
2023-05-06T02:54:00.132Z,8.86
2023-05-06T02:55:00.083Z,8.84
2023-05-06T02:56:00.055Z,8.81
2023-05-06T02:57:00.113Z,8.80
2023-05-06T02:58:00.170Z,8.81
2023-05-06T02:59:00.035Z,8.79
2023-05-06T03:00:00.016Z,8.74
2023-05-06T03:01:00.001Z,8.73
2023-05-06T03:02:00.016Z,8.76
2023-05-06T03:03:00.059Z,8.76
2023-05-06T03:04:00.017Z,8.77
2023-05-06T03:04:59.983Z,8.76
2023-05-06T03:05:59.940Z,8.76
2023-05-06T03:06:59.956Z,8.83
2023-05-06T03:07:59.944Z,8.81
2023-05-06T03:08:59.899Z,8.80
2023-05-06T03:09:59.886Z,8.80
2023-05-06T03:10:59.913Z,8.79
2023-05-06T03:11:59.877Z,8.77
2023-05-06T03:12:59.874Z,8.79
2023-05-06T03:13:59.864Z,8.77
2023-05-06T03:14:59.837Z,8.74
2023-05-06T03:15:59.814Z,8.66
2023-05-06T03:16:59.889Z,8.65
2023-05-06T03:17:59.872Z,8.61
2023-05-06T03:18:59.813Z,8.63
2023-05-06T03:19:59.764Z,8.62
2023-05-06T03:20:59.802Z,8.59
2023-05-06T03:21:59.731Z,8.68
2023-05-06T03:22:59.756Z,8.63
2023-05-06T03:23:59.698Z,8.63
2023-05-06T03:24:59.773Z,8.65
2023-05-06T03:25:59.686Z,8.66
2023-05-06T03:26:59.713Z,8.70
2023-05-06T03:27:59.656Z,8.68
2023-05-06T03:28:59.682Z,8.74
2023-05-06T03:29:59.676Z,8.76
2023-05-06T03:30:59.637Z,8.71
2023-05-06T03:31:59.694Z,8.73
2023-05-06T03:32:59.626Z,8.68
2023-05-06T03:33:59.579Z,8.66
2023-05-06T03:34:59.600Z,8.66
2023-05-06T03:35:59.604Z,8.63
2023-05-06T03:36:59.564Z,8.63
2023-05-06T03:37:59.545Z,8.63
2023-05-06T03:38:59.540Z,8.63
2023-05-06T03:39:59.517Z,8.63
2023-05-06T03:40:59.505Z,8.63
2023-05-06T03:41:59.496Z,8.63
2023-05-06T03:42:59.507Z,8.68
2023-05-06T03:43:59.462Z,8.74
2023-05-06T03:44:59.449Z,8.73
2023-05-06T03:45:59.476Z,8.71
2023-05-06T03:46:59.429Z,8.70
2023-05-06T03:47:59.439Z,8.65
2023-05-06T03:48:59.434Z,8.70
2023-05-06T03:49:59.405Z,8.71
2023-05-06T03:50:59.381Z,8.71
2023-05-06T03:51:59.355Z,8.68
2023-05-06T03:52:59.364Z,8.71
2023-05-06T03:53:59.346Z,8.71
2023-05-06T03:54:59.345Z,8.76
2023-05-06T03:55:59.306Z,8.76
2023-05-06T03:56:59.322Z,8.79
2023-05-06T03:57:59.285Z,8.77
2023-05-06T03:58:59.312Z,8.83
2023-05-06T03:59:59.270Z,8.80
2023-05-06T04:00:59.274Z,8.80
2023-05-06T04:01:59.270Z,8.76
2023-05-06T04:02:59.278Z,8.77
2023-05-06T04:03:59.287Z,8.71
2023-05-06T04:04:59.232Z,8.68
2023-05-06T04:05:59.200Z,8.70
2023-05-06T04:06:59.184Z,8.66
2023-05-06T04:07:59.165Z,8.63
2023-05-06T04:08:59.137Z,8.65
2023-05-06T04:09:59.122Z,8.65
2023-05-06T04:10:59.138Z,8.63
2023-05-06T04:11:59.114Z,8.65
2023-05-06T04:12:59.146Z,8.59
2023-05-06T04:13:59.088Z,8.56
2023-05-06T04:14:59.100Z,8.61
2023-05-06T04:15:59.105Z,8.56
2023-05-06T04:16:59.065Z,8.62
2023-05-06T04:17:59.051Z,8.62
2023-05-06T04:18:59.022Z,8.61
2023-05-06T04:19:59.016Z,8.58
2023-05-06T04:20:59.031Z,8.62
2023-05-06T04:21:58.984Z,8.62
2023-05-06T04:22:58.991Z,8.68
2023-05-06T04:23:58.964Z,8.66
2023-05-06T04:24:58.935Z,8.66
2023-05-06T04:25:58.940Z,8.65
2023-05-06T04:26:58.973Z,8.66
2023-05-06T04:27:58.920Z,8.66
2023-05-06T04:28:58.902Z,8.68
2023-05-06T04:29:58.916Z,8.74
2023-05-06T04:30:58.865Z,8.73
2023-05-06T04:31:58.921Z,8.76
2023-05-06T04:32:58.887Z,8.74
2023-05-06T04:33:58.855Z,8.79
2023-05-06T04:34:58.819Z,8.80
2023-05-06T04:35:58.813Z,8.81
2023-05-06T04:36:58.793Z,8.79
2023-05-06T04:37:58.772Z,8.79
2023-05-06T04:38:58.832Z,8.81
2023-05-06T04:39:58.770Z,8.81
2023-05-06T04:40:58.758Z,8.86
2023-05-06T04:41:58.754Z,8.87
2023-05-06T04:42:58.748Z,8.89
2023-05-06T04:43:58.728Z,8.92
2023-05-06T04:44:58.687Z,8.94
2023-05-06T04:45:58.796Z,8.94
2023-05-06T04:46:58.671Z,9.02
2023-05-06T04:47:58.704Z,9.02
2023-05-06T04:48:58.647Z,9.11
2023-05-06T04:49:58.666Z,9.18
2023-05-06T04:50:58.635Z,9.28
2023-05-06T04:51:58.599Z,9.36
2023-05-06T04:52:58.627Z,9.42
2023-05-06T04:53:58.562Z,9.50
2023-05-06T04:54:58.577Z,9.46
2023-05-06T04:55:58.569Z,9.48
2023-05-06T04:56:58.551Z,9.53
2023-05-06T04:57:58.533Z,9.61
2023-05-06T04:58:58.521Z,9.71
2023-05-06T04:59:58.591Z,9.83
2023-05-06T05:00:58.544Z,9.90
2023-05-06T05:01:58.480Z,9.96
2023-05-06T05:02:58.632Z,9.99
2023-05-06T05:03:58.591Z,10.05
2023-05-06T05:04:58.452Z,10.05
2023-05-06T05:05:58.423Z,10.09
2023-05-06T05:06:58.413Z,10.17
2023-05-06T05:07:58.408Z,10.18
2023-05-06T05:08:59.468Z,10.23
2023-05-06T05:09:58.394Z,10.30
2023-05-06T05:10:58.370Z,10.38
2023-05-06T05:11:58.362Z,10.45
2023-05-06T05:12:58.407Z,10.52
2023-05-06T05:13:59.573Z,10.53
2023-05-06T05:14:58.299Z,10.56
2023-05-06T05:15:58.291Z,10.61
2023-05-06T05:16:58.294Z,10.68
2023-05-06T05:17:58.281Z,10.73
2023-05-06T05:18:58.253Z,10.78
2023-05-06T05:19:58.232Z,10.82
2023-05-06T05:20:58.467Z,10.89
2023-05-06T05:21:58.206Z,10.94
2023-05-06T05:22:58.212Z,11.09
2023-05-06T05:23:58.199Z,11.21
2023-05-06T05:24:58.164Z,11.28
2023-05-06T05:25:58.170Z,11.37
2023-05-06T05:26:58.174Z,11.43
2023-05-06T05:27:58.145Z,11.49
2023-05-06T05:28:58.135Z,11.54
2023-05-06T05:29:58.114Z,11.64
2023-05-06T05:30:58.087Z,11.72
2023-05-06T05:31:58.052Z,11.86
2023-05-06T05:32:58.213Z,12.04
2023-05-06T05:33:58.074Z,12.17
2023-05-06T05:34:58.027Z,12.29
2023-05-06T05:35:58.055Z,12.45
2023-05-06T05:36:58.020Z,12.52
2023-05-06T05:37:57.984Z,12.70
2023-05-06T05:38:57.988Z,12.79
2023-05-06T05:39:57.941Z,12.89
2023-05-06T05:40:57.936Z,12.92
2023-05-06T05:41:57.938Z,12.95
2023-05-06T05:42:57.944Z,12.97
2023-05-06T05:43:57.874Z,13.01
2023-05-06T05:44:57.917Z,13.03
2023-05-06T05:45:57.905Z,13.07
2023-05-06T05:46:57.883Z,13.11
2023-05-06T05:47:57.902Z,13.14
2023-05-06T05:48:57.856Z,13.22
2023-05-06T05:49:57.791Z,13.36
2023-05-06T05:50:57.800Z,13.54
2023-05-06T05:51:57.792Z,13.69
2023-05-06T05:52:57.775Z,13.77
2023-05-06T05:53:57.756Z,13.75
2023-05-06T05:54:57.765Z,13.73
2023-05-06T05:55:57.767Z,13.70
2023-05-06T05:56:57.738Z,13.70
2023-05-06T05:57:57.707Z,13.67
2023-05-06T05:58:57.674Z,13.71
2023-05-06T05:59:57.694Z,13.75
2023-05-06T06:00:57.663Z,13.78
2023-05-06T06:01:57.628Z,13.77
2023-05-06T06:02:57.686Z,13.79
2023-05-06T06:03:57.678Z,13.82
2023-05-06T06:04:57.754Z,13.87
2023-05-06T06:05:57.556Z,13.91
2023-05-06T06:06:57.564Z,13.97
2023-05-06T06:07:57.538Z,14.02
2023-05-06T06:08:57.542Z,14.10
2023-05-06T06:09:57.579Z,14.18
2023-05-06T06:10:57.552Z,14.18
2023-05-06T06:11:57.548Z,14.21
2023-05-06T06:12:57.564Z,14.21
2023-05-06T06:13:57.486Z,14.21
2023-05-06T06:14:57.452Z,14.21
2023-05-06T06:15:57.554Z,14.20
2023-05-06T06:16:57.443Z,14.24
2023-05-06T06:17:57.457Z,14.27
2023-05-06T06:18:57.403Z,14.32
2023-05-06T06:19:57.385Z,14.39
2023-05-06T06:20:57.408Z,14.37
2023-05-06T06:21:57.457Z,14.37
2023-05-06T06:22:57.400Z,14.39
2023-05-06T06:23:57.328Z,14.40
2023-05-06T06:24:57.296Z,14.40
2023-05-06T06:25:57.289Z,14.36
2023-05-06T06:26:57.306Z,14.25
2023-05-06T06:27:57.283Z,14.17
2023-05-06T06:28:57.262Z,14.20
2023-05-06T06:29:57.265Z,14.28
2023-05-06T06:30:57.276Z,14.36
2023-05-06T06:31:57.274Z,14.45
2023-05-06T06:32:57.323Z,14.51
2023-05-06T06:33:57.322Z,14.60
2023-05-06T06:34:57.173Z,14.77
2023-05-06T06:35:57.219Z,14.88
2023-05-06T06:36:57.184Z,14.95
2023-05-06T06:37:57.142Z,15.06
2023-05-06T06:38:57.110Z,15.17
2023-05-06T06:39:57.129Z,15.21
2023-05-06T06:40:57.104Z,15.27
2023-05-06T06:41:57.102Z,15.35
2023-05-06T06:42:57.056Z,15.34
2023-05-06T06:43:57.062Z,15.19
2023-05-06T06:44:57.031Z,15.17
2023-05-06T06:45:57.188Z,15.16
2023-05-06T06:46:57.088Z,15.19
2023-05-06T06:47:57.098Z,15.23
2023-05-06T06:48:56.992Z,15.20
2023-05-06T06:49:56.954Z,15.16
2023-05-06T06:50:56.970Z,15.19
2023-05-06T06:51:56.950Z,15.25
2023-05-06T06:52:56.950Z,15.35
2023-05-06T06:53:56.921Z,15.50
2023-05-06T06:54:56.898Z,15.60
2023-05-06T06:55:56.897Z,15.57
2023-05-06T06:56:56.910Z,15.65
2023-05-06T06:57:56.874Z,15.74
2023-05-06T06:58:56.909Z,15.82
2023-05-06T06:59:56.860Z,15.86
2023-05-06T07:00:56.886Z,16.01
2023-05-06T07:01:56.826Z,16.01
2023-05-06T07:02:56.880Z,15.97
2023-05-06T07:03:56.818Z,16.04
2023-05-06T07:04:56.761Z,16.08
2023-05-06T07:05:56.769Z,16.15
2023-05-06T07:06:56.780Z,16.23
2023-05-06T07:07:56.728Z,16.28
2023-05-06T07:08:56.693Z,16.05
2023-05-06T07:09:56.754Z,16.07
2023-05-06T07:10:56.722Z,16.05
2023-05-06T07:11:56.738Z,16.09
2023-05-06T07:12:56.721Z,16.12
2023-05-06T07:13:56.658Z,16.08
2023-05-06T07:14:56.642Z,16.08
2023-05-06T07:15:56.649Z,16.20
2023-05-06T07:16:56.629Z,16.31
2023-05-06T07:17:56.649Z,16.43
2023-05-06T07:18:56.603Z,16.63
2023-05-06T07:19:56.559Z,16.83
2023-05-06T07:20:56.548Z,16.91
2023-05-06T07:21:56.562Z,17.03
2023-05-06T07:22:56.555Z,17.18
2023-05-06T07:23:56.518Z,17.16
2023-05-06T07:24:56.498Z,17.04
2023-05-06T07:25:56.514Z,16.96
2023-05-06T07:26:56.464Z,16.79
2023-05-06T07:27:56.505Z,16.78
2023-05-06T07:28:56.439Z,16.78
2023-05-06T07:29:56.420Z,16.71
2023-05-06T07:30:56.454Z,16.71
2023-05-06T07:31:56.447Z,16.82
2023-05-06T07:32:56.520Z,16.85
2023-05-06T07:33:56.423Z,16.86
2023-05-06T07:34:56.359Z,16.89
2023-05-06T07:35:56.358Z,16.89
2023-05-06T07:36:56.345Z,17.00
2023-05-06T07:37:56.377Z,17.25
2023-05-06T07:38:56.334Z,17.52
2023-05-06T07:39:56.317Z,17.77
2023-05-06T07:40:56.318Z,18.00
2023-05-06T07:41:56.281Z,18.03
2023-05-06T07:42:56.257Z,18.00
2023-05-06T07:43:56.238Z,17.96
2023-05-06T07:44:56.204Z,18.15
2023-05-06T07:45:56.269Z,18.27
2023-05-06T07:46:56.327Z,18.25
2023-05-06T07:47:56.184Z,18.03
2023-05-06T07:48:56.171Z,17.87
2023-05-06T07:49:56.158Z,17.66
2023-05-06T07:50:56.152Z,17.54
2023-05-06T07:51:56.130Z,17.51
2023-05-06T07:52:56.145Z,17.55
2023-05-06T07:53:56.131Z,17.59
2023-05-06T07:54:56.070Z,17.59
2023-05-06T07:55:56.084Z,17.64
2023-05-06T07:56:56.028Z,17.70
2023-05-06T07:57:56.063Z,17.81
2023-05-06T07:58:56.042Z,17.78
2023-05-06T07:59:56.072Z,17.78
2023-05-06T08:00:56.051Z,17.92
2023-05-06T08:01:55.982Z,18.10
2023-05-06T08:02:56.190Z,18.26
2023-05-06T08:03:56.076Z,18.27
2023-05-06T08:04:56.017Z,18.23
2023-05-06T08:05:55.971Z,18.20
2023-05-06T08:06:55.963Z,18.17
2023-05-06T08:07:55.964Z,18.18
2023-05-06T08:08:55.882Z,18.21
2023-05-06T08:09:55.910Z,18.29
2023-05-06T08:10:55.890Z,18.35
2023-05-06T08:11:55.880Z,18.32
2023-05-06T08:12:55.929Z,18.27
2023-05-06T08:13:55.857Z,18.17
2023-05-06T08:14:55.809Z,18.21
2023-05-06T08:15:55.887Z,18.36
2023-05-06T08:16:55.775Z,18.57
2023-05-06T08:17:56.073Z,18.58
2023-05-06T08:18:55.765Z,18.67
2023-05-06T08:19:55.757Z,18.82
2023-05-06T08:20:55.722Z,18.63
2023-05-06T08:21:55.789Z,18.58
2023-05-06T08:22:55.729Z,18.55
2023-05-06T08:23:55.685Z,18.58
2023-05-06T08:24:55.705Z,18.72
2023-05-06T08:25:55.687Z,18.76
2023-05-06T08:26:55.653Z,18.76
2023-05-06T08:27:55.646Z,18.78
2023-05-06T08:28:55.612Z,18.73
2023-05-06T08:29:55.625Z,18.70
2023-05-06T08:30:55.607Z,18.67
2023-05-06T08:31:55.625Z,18.73
2023-05-06T08:32:55.615Z,18.72
2023-05-06T08:33:55.584Z,18.69
2023-05-06T08:34:55.600Z,18.80
2023-05-06T08:35:55.563Z,18.72
2023-05-06T08:36:55.512Z,18.75
2023-05-06T08:37:55.538Z,18.85
2023-05-06T08:38:55.489Z,19.00
2023-05-06T08:39:55.540Z,18.94
2023-05-06T08:40:55.478Z,19.02
2023-05-06T08:41:55.455Z,19.28
2023-05-06T08:42:55.444Z,19.46
2023-05-06T08:43:55.455Z,19.63
2023-05-06T08:44:55.463Z,19.51
2023-05-06T08:45:55.443Z,19.50
2023-05-06T08:46:55.392Z,19.32
2023-05-06T08:47:55.405Z,19.23
2023-05-06T08:48:55.383Z,19.13
2023-05-06T08:49:55.351Z,19.14
2023-05-06T08:50:55.348Z,19.10
2023-05-06T08:51:55.341Z,18.98
2023-05-06T08:52:55.294Z,18.98
2023-05-06T08:53:55.312Z,18.90
2023-05-06T08:54:55.323Z,18.92
2023-05-06T08:55:55.269Z,19.06
2023-05-06T08:56:55.282Z,19.04
2023-05-06T08:57:55.240Z,19.13
2023-05-06T08:58:55.228Z,19.25
2023-05-06T08:59:55.226Z,19.31
2023-05-06T09:00:55.264Z,19.31
2023-05-06T09:01:55.244Z,19.32
2023-05-06T09:02:55.252Z,19.29
2023-05-06T09:03:55.257Z,19.26
2023-05-06T09:04:55.147Z,19.32
2023-05-06T09:05:55.129Z,19.31
2023-05-06T09:06:55.095Z,19.36
2023-05-06T09:07:55.087Z,19.47
2023-05-06T09:08:55.105Z,19.58
2023-05-06T09:09:55.119Z,19.41
2023-05-06T09:10:55.082Z,19.58
2023-05-06T09:11:55.082Z,19.58
2023-05-06T09:12:55.734Z,19.41
2023-05-06T09:13:55.020Z,19.37
2023-05-06T09:14:55.003Z,19.25
2023-05-06T09:15:55.017Z,19.29
2023-05-06T09:16:55.026Z,19.43
2023-05-06T09:17:55.076Z,19.51
2023-05-06T09:18:54.952Z,19.44
2023-05-06T09:19:54.943Z,19.46
2023-05-06T09:20:54.893Z,19.54
2023-05-06T09:21:54.919Z,19.66
2023-05-06T09:22:54.899Z,19.73
2023-05-06T09:23:54.894Z,19.74
2023-05-06T09:24:54.878Z,19.73
2023-05-06T09:25:54.872Z,19.76
2023-05-06T09:26:54.865Z,19.74
2023-05-06T09:27:54.836Z,19.80
2023-05-06T09:28:54.814Z,19.92
2023-05-06T09:29:54.852Z,20.05
2023-05-06T09:30:54.910Z,20.05
2023-05-06T09:31:54.803Z,20.03
2023-05-06T09:32:54.780Z,20.05
2023-05-06T09:33:54.748Z,20.18
2023-05-06T09:34:54.720Z,20.28
2023-05-06T09:35:54.773Z,20.08
2023-05-06T09:36:54.761Z,19.80
2023-05-06T09:37:54.707Z,19.81
2023-05-06T09:38:54.716Z,19.91
2023-05-06T09:39:54.669Z,20.01
2023-05-06T09:40:54.660Z,20.08
2023-05-06T09:41:54.668Z,20.03
2023-05-06T09:42:54.656Z,20.05
2023-05-06T09:43:54.634Z,19.76
2023-05-06T09:44:54.592Z,19.69
2023-05-06T09:45:54.643Z,19.65
2023-05-06T09:46:54.561Z,19.71
2023-05-06T09:47:54.582Z,19.84
2023-05-06T09:48:54.644Z,19.88
2023-05-06T09:49:54.580Z,19.95
2023-05-06T09:50:54.556Z,19.87
2023-05-06T09:51:54.514Z,19.59
2023-05-06T09:52:54.485Z,19.58
2023-05-06T09:53:54.482Z,19.58
2023-05-06T09:54:54.524Z,19.73
2023-05-06T09:55:54.436Z,19.81
2023-05-06T09:56:54.452Z,19.96
2023-05-06T09:57:54.477Z,20.08
2023-05-06T09:58:54.396Z,20.18
2023-05-06T09:59:54.417Z,20.18
2023-05-06T10:00:54.384Z,20.05
2023-05-06T10:01:54.414Z,20.01
2023-05-06T10:02:54.520Z,19.92
2023-05-06T10:03:54.503Z,19.83
2023-05-06T10:04:54.424Z,19.77
2023-05-06T10:05:54.313Z,19.58
2023-05-06T10:06:54.326Z,19.44
2023-05-06T10:07:54.306Z,19.46
2023-05-06T10:08:54.297Z,19.69
2023-05-06T10:09:54.256Z,19.95
2023-05-06T10:10:54.283Z,20.16
2023-05-06T10:11:54.241Z,20.36
2023-05-06T10:12:54.256Z,20.50
2023-05-06T10:13:54.219Z,20.61
2023-05-06T10:14:54.212Z,20.51
2023-05-06T10:15:54.235Z,20.35
2023-05-06T10:16:54.175Z,20.24
2023-05-06T10:17:54.205Z,20.16
2023-05-06T10:18:54.181Z,19.96
2023-05-06T10:19:54.123Z,20.03
2023-05-06T10:20:54.218Z,20.32
2023-05-06T10:21:54.106Z,20.66
2023-05-06T10:22:54.120Z,20.95
2023-05-06T10:23:54.072Z,20.99
2023-05-06T10:24:54.060Z,20.80
2023-05-06T10:25:54.034Z,20.67
2023-05-06T10:26:54.035Z,20.85
2023-05-06T10:27:54.021Z,21.06
2023-05-06T10:28:54.045Z,21.10
2023-05-06T10:29:54.022Z,20.99
2023-05-06T10:30:53.982Z,20.82
2023-05-06T10:31:54.063Z,20.42
2023-05-06T10:32:54.075Z,20.28
2023-05-06T10:33:53.955Z,20.20
2023-05-06T10:34:53.963Z,20.16
2023-05-06T10:35:53.934Z,20.10
2023-05-06T10:36:53.902Z,20.11
2023-05-06T10:37:53.941Z,20.58
2023-05-06T10:38:53.900Z,20.85
2023-05-06T10:39:53.841Z,20.98
2023-05-06T10:40:53.868Z,20.92
2023-05-06T10:41:53.823Z,20.98
2023-05-06T10:42:53.844Z,21.21
2023-05-06T10:43:53.812Z,21.47
2023-05-06T10:44:53.827Z,21.52
2023-05-06T10:45:53.786Z,21.79
2023-05-06T10:46:53.775Z,22.09
2023-05-06T10:47:53.810Z,22.36
2023-05-06T10:48:53.812Z,22.40
2023-05-06T10:49:53.748Z,22.45
2023-05-06T10:50:53.741Z,22.37
2023-05-06T10:51:53.697Z,22.43
2023-05-06T10:52:53.710Z,22.49
2023-05-06T10:53:53.729Z,22.61
2023-05-06T10:54:53.682Z,22.49
2023-05-06T10:55:53.641Z,22.27
2023-05-06T10:56:53.625Z,22.10
2023-05-06T10:57:53.642Z,22.03
2023-05-06T10:58:53.666Z,21.96
2023-05-06T10:59:53.619Z,21.86
2023-05-06T11:00:53.770Z,21.74
2023-05-06T11:01:53.553Z,21.77
2023-05-06T11:02:53.639Z,21.94
2023-05-06T11:03:53.540Z,22.14
2023-05-06T11:04:53.568Z,22.27
2023-05-06T11:05:53.514Z,21.99
2023-05-06T11:06:53.545Z,21.77
2023-05-06T11:07:53.482Z,21.62
2023-05-06T11:08:53.492Z,21.46
2023-05-06T11:09:53.469Z,21.21
2023-05-06T11:10:53.484Z,21.06
2023-05-06T11:11:53.402Z,20.98
2023-05-06T11:12:53.551Z,21.04
2023-05-06T11:13:53.403Z,21.16
2023-05-06T11:14:53.420Z,21.22
2023-05-06T11:15:53.447Z,21.19
2023-05-06T11:16:53.393Z,21.14
2023-05-06T11:17:53.401Z,21.14
2023-05-06T11:18:53.337Z,21.14
2023-05-06T11:19:53.287Z,21.12
2023-05-06T11:20:53.408Z,21.17
2023-05-06T11:21:53.346Z,21.50
2023-05-06T11:22:53.270Z,21.96
2023-05-06T11:23:53.297Z,22.49
2023-05-06T11:24:53.297Z,22.94
2023-05-06T11:25:53.229Z,23.79
2023-05-06T11:26:53.282Z,24.52
2023-05-06T11:27:53.216Z,25.13
2023-05-06T11:28:53.231Z,25.52
2023-05-06T11:29:53.224Z,25.23
2023-05-06T11:30:53.192Z,24.98
2023-05-06T11:31:53.155Z,24.95
2023-05-06T11:32:53.217Z,25.20
2023-05-06T11:33:53.156Z,25.08
2023-05-06T11:34:53.134Z,25.30
2023-05-06T11:35:53.129Z,25.60
2023-05-06T11:36:53.120Z,25.36
2023-05-06T11:37:53.096Z,25.30
2023-05-06T11:38:53.295Z,25.57
2023-05-06T11:39:53.160Z,25.03
2023-05-06T11:40:53.090Z,24.45
2023-05-06T11:41:53.007Z,24.06
2023-05-06T11:42:53.002Z,23.73
2023-05-06T11:43:53.010Z,23.32
2023-05-06T11:44:53.034Z,22.98
2023-05-06T11:45:52.981Z,22.76
2023-05-06T11:46:52.963Z,22.10
2023-05-06T11:47:52.995Z,22.21
2023-05-06T11:48:52.922Z,22.76
2023-05-06T11:49:52.933Z,22.65
2023-05-06T11:50:52.873Z,22.79
2023-05-06T11:51:52.889Z,23.80
2023-05-06T11:52:52.879Z,24.73
2023-05-06T11:53:52.827Z,25.69
2023-05-06T11:54:52.866Z,26.48
2023-05-06T11:55:52.810Z,26.66
2023-05-06T11:56:52.830Z,26.09
2023-05-06T11:57:52.810Z,25.40
2023-05-06T11:58:52.827Z,24.58
2023-05-06T11:59:52.772Z,24.03
2023-05-06T12:00:52.766Z,23.61
2023-05-06T12:01:52.749Z,23.32
2023-05-06T12:02:52.901Z,22.91
2023-05-06T12:03:52.800Z,22.58
2023-05-06T12:04:52.991Z,22.17
2023-05-06T12:05:52.692Z,22.24
2023-05-06T12:06:52.683Z,22.51
2023-05-06T12:07:52.661Z,22.68
2023-05-06T12:08:52.643Z,22.67
2023-05-06T12:09:52.653Z,22.54
2023-05-06T12:10:52.615Z,22.49
2023-05-06T12:11:52.614Z,22.27
2023-05-06T12:12:52.611Z,22.27
2023-05-06T12:13:52.620Z,22.51
2023-05-06T12:14:52.586Z,22.82
2023-05-06T12:15:52.678Z,23.43
2023-05-06T12:16:54.104Z,24.24
2023-05-06T12:17:52.562Z,24.78
2023-05-06T12:18:52.510Z,24.67
2023-05-06T12:19:52.474Z,23.85
2023-05-06T12:20:52.485Z,23.55
2023-05-06T12:21:52.453Z,23.28
2023-05-06T12:22:54.357Z,23.17
2023-05-06T12:23:52.586Z,23.22
2023-05-06T12:24:52.431Z,22.98
2023-05-06T12:25:52.407Z,22.85
2023-05-06T12:26:52.411Z,22.76
2023-05-06T12:27:52.407Z,22.27
2023-05-06T12:28:52.451Z,22.18
2023-05-06T12:29:52.348Z,22.14
2023-05-06T12:30:52.367Z,22.07
2023-05-06T12:31:52.413Z,21.94
2023-05-06T12:32:52.436Z,21.94
2023-05-06T12:33:53.300Z,21.99
2023-05-06T12:34:52.315Z,22.10
2023-05-06T12:35:52.321Z,22.21
2023-05-06T12:36:52.303Z,22.33
2023-05-06T12:37:52.262Z,22.36
2023-05-06T12:38:52.268Z,22.25
2023-05-06T12:39:52.291Z,22.20
2023-05-06T12:40:52.243Z,22.27
2023-05-06T12:41:52.212Z,22.25
2023-05-06T12:42:52.208Z,22.45
2023-05-06T12:43:52.200Z,22.88
2023-05-06T12:44:52.212Z,23.23
2023-05-06T12:45:52.202Z,23.70
2023-05-06T12:46:52.147Z,23.98
2023-05-06T12:47:52.222Z,24.16
2023-05-06T12:48:52.153Z,24.60
2023-05-06T12:49:52.085Z,25.06
2023-05-06T12:50:52.074Z,25.18
2023-05-06T12:51:52.121Z,25.27
2023-05-06T12:52:52.091Z,25.42
2023-05-06T12:53:52.044Z,25.76
2023-05-06T12:54:53.465Z,25.97
2023-05-06T12:55:52.036Z,25.99
2023-05-06T12:56:52.006Z,26.05
2023-05-06T12:57:51.991Z,25.61
2023-05-06T12:58:51.995Z,25.83
2023-05-06T12:59:52.072Z,26.07
2023-05-06T13:00:51.982Z,26.05
2023-05-06T13:01:51.918Z,25.82
2023-05-06T13:02:52.027Z,26.10
2023-05-06T13:03:51.892Z,26.37
2023-05-06T13:04:51.904Z,26.28